sensor_id;sensor_type;location;lat;lon;timestamp;pressure;altitude;pressure_sealevel;temperature;humidity
19259;BME280;9763;48.780;9.212;2022-08-19T00:00:07;97888.06;;;26.14;nan
19259;BME280;9763;48.780;9.212;2022-08-19T00:03:32;97894.88;;;26.10;nan
19259;BME280;9763;48.780;9.212;2022-08-19T00:06:55;97884.38;;;26.09;nan
19259;BME280;9763;48.780;9.212;2022-08-19T00:10:21;97891.81;;;26.07;nan
19259;BME280;9763;48.780;9.212;2022-08-19T00:13:46;97889.34;;;26.05;nan
19259;BME280;9763;48.780;9.212;2022-08-19T00:17:10;97899.63;;;26.02;nan
19259;BME280;9763;48.780;9.212;2022-08-19T00:20:34;97896.16;;;26.01;nan
19259;BME280;9763;48.780;9.212;2022-08-19T00:23:59;97890.78;;;26.01;nan
19259;BME280;9763;48.780;9.212;2022-08-19T00:27:24;97900.88;;;25.99;nan
19259;BME280;9763;48.780;9.212;2022-08-19T00:30:48;97891.84;;;25.94;nan
19259;BME280;9763;48.780;9.212;2022-08-19T00:34:14;97887.75;;;25.91;nan
19259;BME280;9763;48.780;9.212;2022-08-19T00:37:38;97877.66;;;25.87;nan
19259;BME280;9763;48.780;9.212;2022-08-19T00:41:06;97868.63;;;25.81;nan
19259;BME280;9763;48.780;9.212;2022-08-19T00:44:32;97869.06;;;25.78;nan
19259;BME280;9763;48.780;9.212;2022-08-19T00:47:55;97877.28;;;25.76;nan
19259;BME280;9763;48.780;9.212;2022-08-19T00:51:19;97879.34;;;25.74;nan
19259;BME280;9763;48.780;9.212;2022-08-19T00:54:45;97876.03;;;25.72;nan
19259;BME280;9763;48.780;9.212;2022-08-19T00:58:22;97888.63;;;25.72;nan
19259;BME280;9763;48.780;9.212;2022-08-19T01:01:49;97893.34;;;25.70;nan
19259;BME280;9763;48.780;9.212;2022-08-19T01:05:17;97886.34;;;25.69;nan
19259;BME280;9763;48.780;9.212;2022-08-19T01:08:42;97884.72;;;25.68;nan
19259;BME280;9763;48.780;9.212;2022-08-19T01:12:08;97889.22;;;25.67;nan
19259;BME280;9763;48.780;9.212;2022-08-19T01:15:38;97880.38;;;25.67;nan
19259;BME280;9763;48.780;9.212;2022-08-19T01:19:25;97872.78;;;25.64;nan
19259;BME280;9763;48.780;9.212;2022-08-19T01:22:55;97879.34;;;25.61;nan
19259;BME280;9763;48.780;9.212;2022-08-19T01:26:24;97875.25;;;25.59;nan
19259;BME280;9763;48.780;9.212;2022-08-19T01:29:48;97879.56;;;25.60;nan
19259;BME280;9763;48.780;9.212;2022-08-19T01:33:12;97877.09;;;25.58;nan
19259;BME280;9763;48.780;9.212;2022-08-19T01:36:39;97865.78;;;25.56;nan
19259;BME280;9763;48.780;9.212;2022-08-19T01:40:07;97868.44;;;25.56;nan
19259;BME280;9763;48.780;9.212;2022-08-19T01:43:31;97874.63;;;25.57;nan
19259;BME280;9763;48.780;9.212;2022-08-19T01:46:55;97862.09;;;25.57;nan
19259;BME280;9763;48.780;9.212;2022-08-19T01:50:19;97871.13;;;25.56;nan
19259;BME280;9763;48.780;9.212;2022-08-19T01:53:46;97866.81;;;25.55;nan
19259;BME280;9763;48.780;9.212;2022-08-19T01:57:13;97865.97;;;25.55;nan
19259;BME280;9763;48.780;9.212;2022-08-19T02:04:37;97872.16;;;25.48;nan
19259;BME280;9763;48.780;9.212;2022-08-19T02:08:01;97877.94;;;25.45;nan
19259;BME280;9763;48.780;9.212;2022-08-19T02:11:27;97875.88;;;25.41;nan
19259;BME280;9763;48.780;9.212;2022-08-19T02:14:55;97868.25;;;25.38;nan
19259;BME280;9763;48.780;9.212;2022-08-19T02:18:18;97871.13;;;25.36;nan
19259;BME280;9763;48.780;9.212;2022-08-19T02:21:49;97876.72;;;25.35;nan
19259;BME280;9763;48.780;9.212;2022-08-19T02:25:14;97877.09;;;25.32;nan
19259;BME280;9763;48.780;9.212;2022-08-19T02:28:38;97872.38;;;25.27;nan
19259;BME280;9763;48.780;9.212;2022-08-19T02:32:05;97884.50;;;25.30;nan
19259;BME280;9763;48.780;9.212;2022-08-19T02:35:29;97879.56;;;25.27;nan
19259;BME280;9763;48.780;9.212;2022-08-19T02:38:53;97872.56;;;25.26;nan
19259;BME280;9763;48.780;9.212;2022-08-19T02:42:17;97867.66;;;25.23;nan
19259;BME280;9763;48.780;9.212;2022-08-19T02:45:40;97871.56;;;25.20;nan
19259;BME280;9763;48.780;9.212;2022-08-19T02:49:07;97870.13;;;25.18;nan
19259;BME280;9763;48.780;9.212;2022-08-19T02:52:32;97867.22;;;25.12;nan
19259;BME280;9763;48.780;9.212;2022-08-19T02:55:56;97865.19;;;25.08;nan
19259;BME280;9763;48.780;9.212;2022-08-19T02:59:20;97875.25;;;25.06;nan
19259;BME280;9763;48.780;9.212;2022-08-19T03:02:44;97867.66;;;25.03;nan
19259;BME280;9763;48.780;9.212;2022-08-19T03:06:14;97863.53;;;25.00;nan
19259;BME280;9763;48.780;9.212;2022-08-19T03:09:38;97869.31;;;24.97;nan
19259;BME280;9763;48.780;9.212;2022-08-19T03:13:03;97874.03;;;24.95;nan
19259;BME280;9763;48.780;9.212;2022-08-19T03:16:32;97879.94;;;24.91;nan
19259;BME280;9763;48.780;9.212;2022-08-19T03:19:56;97888.75;;;24.85;nan
19259;BME280;9763;48.780;9.212;2022-08-19T03:23:23;97885.88;;;24.80;nan
19259;BME280;9763;48.780;9.212;2022-08-19T03:26:50;97879.06;;;24.77;nan
19259;BME280;9763;48.780;9.212;2022-08-19T03:30:14;97891.59;;;24.76;nan
19259;BME280;9763;48.780;9.212;2022-08-19T03:33:45;97885.66;;;24.74;nan
19259;BME280;9763;48.780;9.212;2022-08-19T03:37:12;97880.53;;;24.73;nan
19259;BME280;9763;48.780;9.212;2022-08-19T03:40:38;97889.75;;;24.70;nan
19259;BME280;9763;48.780;9.212;2022-08-19T03:44:01;97889.75;;;24.70;nan
19259;BME280;9763;48.780;9.212;2022-08-19T03:47:33;97886.25;;;24.70;nan
19259;BME280;9763;48.780;9.212;2022-08-19T03:50:58;97880.50;;;24.66;nan
19259;BME280;9763;48.780;9.212;2022-08-19T03:54:24;97877.44;;;24.63;nan
19259;BME280;9763;48.780;9.212;2022-08-19T03:57:49;97888.31;;;24.61;nan
19259;BME280;9763;48.780;9.212;2022-08-19T04:01:23;97893.66;;;24.61;nan
19259;BME280;9763;48.780;9.212;2022-08-19T04:04:56;97891.16;;;24.60;nan
19259;BME280;9763;48.780;9.212;2022-08-19T04:08:20;97894.88;;;24.59;nan
19259;BME280;9763;48.780;9.212;2022-08-19T04:11:49;97892.59;;;24.56;nan
19259;BME280;9763;48.780;9.212;2022-08-19T04:15:17;97897.94;;;24.56;nan
19259;BME280;9763;48.780;9.212;2022-08-19T04:18:41;97889.91;;;24.56;nan
19259;BME280;9763;48.780;9.212;2022-08-19T04:22:06;97878.63;;;24.54;nan
19259;BME280;9763;48.780;9.212;2022-08-19T04:25:37;97886.41;;;24.49;nan
19259;BME280;9763;48.780;9.212;2022-08-19T04:29:04;97896.91;;;24.50;nan
19259;BME280;9763;48.780;9.212;2022-08-19T04:32:35;97888.91;;;24.50;nan
19259;BME280;9763;48.780;9.212;2022-08-19T04:35:58;97884.56;;;24.49;nan
19259;BME280;9763;48.780;9.212;2022-08-19T04:39:25;97880.25;;;24.48;nan
19259;BME280;9763;48.780;9.212;2022-08-19T04:43:10;97888.06;;;24.50;nan
19259;BME280;9763;48.780;9.212;2022-08-19T04:46:35;97892.38;;;24.51;nan
19259;BME280;9763;48.780;9.212;2022-08-19T04:50:14;97894.81;;;24.52;nan
19259;BME280;9763;48.780;9.212;2022-08-19T04:53:41;97897.94;;;24.56;nan
19259;BME280;9763;48.780;9.212;2022-08-19T04:57:08;97899.78;;;24.55;nan
19259;BME280;9763;48.780;9.212;2022-08-19T05:00:32;97894.63;;;24.54;nan
19259;BME280;9763;48.780;9.212;2022-08-19T05:04:00;97909.00;;;24.53;nan
19259;BME280;9763;48.780;9.212;2022-08-19T05:07:26;97897.28;;;24.54;nan
19259;BME280;9763;48.780;9.212;2022-08-19T05:10:51;97904.47;;;24.53;nan
19259;BME280;9763;48.780;9.212;2022-08-19T05:14:15;97910.44;;;24.55;nan
19259;BME280;9763;48.780;9.212;2022-08-19T05:17:38;97926.47;;;24.55;nan
19259;BME280;9763;48.780;9.212;2022-08-19T05:21:23;97931.78;;;24.55;nan
19259;BME280;9763;48.780;9.212;2022-08-19T05:25:10;97947.81;;;24.55;nan
19259;BME280;9763;48.780;9.212;2022-08-19T05:28:35;97967.13;;;24.57;nan
19259;BME280;9763;48.780;9.212;2022-08-19T05:31:58;97970.63;;;24.58;nan
19259;BME280;9763;48.780;9.212;2022-08-19T05:35:22;97982.75;;;24.60;nan
19259;BME280;9763;48.780;9.212;2022-08-19T05:38:46;97985.41;;;24.60;nan
19259;BME280;9763;48.780;9.212;2022-08-19T05:42:13;97987.25;;;24.60;nan
19259;BME280;9763;48.780;9.212;2022-08-19T05:45:41;97988.28;;;24.59;nan
19259;BME280;9763;48.780;9.212;2022-08-19T05:49:06;97984.59;;;24.60;nan
19259;BME280;9763;48.780;9.212;2022-08-19T05:52:30;97980.91;;;24.61;nan
19259;BME280;9763;48.780;9.212;2022-08-19T05:55:54;97977.41;;;24.60;nan
19259;BME280;9763;48.780;9.212;2022-08-19T05:59:22;97984.38;;;24.61;nan
19259;BME280;9763;48.780;9.212;2022-08-19T06:02:46;97981.53;;;24.63;nan
19259;BME280;9763;48.780;9.212;2022-08-19T06:06:13;97986.88;;;24.63;nan
19259;BME280;9763;48.780;9.212;2022-08-19T06:09:37;97991.56;;;24.61;nan
19259;BME280;9763;48.780;9.212;2022-08-19T06:13:00;97987.88;;;24.62;nan
19259;BME280;9763;48.780;9.212;2022-08-19T06:16:26;97985.81;;;24.64;nan
19259;BME280;9763;48.780;9.212;2022-08-19T06:19:51;97989.13;;;24.66;nan
19259;BME280;9763;48.780;9.212;2022-08-19T06:23:14;97979.88;;;24.62;nan
19259;BME280;9763;48.780;9.212;2022-08-19T06:26:43;97984.19;;;24.63;nan
19259;BME280;9763;48.780;9.212;2022-08-19T06:30:12;97988.91;;;24.61;nan
19259;BME280;9763;48.780;9.212;2022-08-19T06:33:37;97986.44;;;24.59;nan
19259;BME280;9763;48.780;9.212;2022-08-19T06:37:03;97998.94;;;24.59;nan
19259;BME280;9763;48.780;9.212;2022-08-19T06:40:27;97992.97;;;24.57;nan
19259;BME280;9763;48.780;9.212;2022-08-19T06:43:51;97992.97;;;24.57;nan
19259;BME280;9763;48.780;9.212;2022-08-19T06:47:20;98002.00;;;24.56;nan
19259;BME280;9763;48.780;9.212;2022-08-19T06:50:51;97997.28;;;24.51;nan
19259;BME280;9763;48.780;9.212;2022-08-19T06:54:16;98003.84;;;24.49;nan
19259;BME280;9763;48.780;9.212;2022-08-19T06:57:41;98007.53;;;24.48;nan
19259;BME280;9763;48.780;9.212;2022-08-19T07:01:09;98005.47;;;24.50;nan
19259;BME280;9763;48.780;9.212;2022-08-19T07:04:34;98012.84;;;24.48;nan
19259;BME280;9763;48.780;9.212;2022-08-19T07:08:00;98012.84;;;24.48;nan
19259;BME280;9763;48.780;9.212;2022-08-19T07:11:27;98013.50;;;24.50;nan
19259;BME280;9763;48.780;9.212;2022-08-19T07:14:58;98008.75;;;24.52;nan
19259;BME280;9763;48.780;9.212;2022-08-19T07:18:23;98021.53;;;24.56;nan
19259;BME280;9763;48.780;9.212;2022-08-19T07:21:50;98018.84;;;24.56;nan
19259;BME280;9763;48.780;9.212;2022-08-19T07:25:17;98022.34;;;24.57;nan
19259;BME280;9763;48.780;9.212;2022-08-19T07:28:41;98016.38;;;24.55;nan
19259;BME280;9763;48.780;9.212;2022-08-19T07:32:12;98010.84;;;24.56;nan
19259;BME280;9763;48.780;9.212;2022-08-19T07:35:36;98022.34;;;24.57;nan
19259;BME280;9763;48.780;9.212;2022-08-19T07:39:05;98015.53;;;24.54;nan
19259;BME280;9763;48.780;9.212;2022-08-19T07:42:30;98019.25;;;24.53;nan
19259;BME280;9763;48.780;9.212;2022-08-19T07:45:55;98023.16;;;24.51;nan
19259;BME280;9763;48.780;9.212;2022-08-19T07:49:20;98019.66;;;24.50;nan
19259;BME280;9763;48.780;9.212;2022-08-19T07:52:44;98021.50;;;24.50;nan
19259;BME280;9763;48.780;9.212;2022-08-19T07:56:12;98027.44;;;24.52;nan
19259;BME280;9763;48.780;9.212;2022-08-19T07:59:37;98019.84;;;24.49;nan
19259;BME280;9763;48.780;9.212;2022-08-19T08:03:01;98031.63;;;24.26;nan
19259;BME280;9763;48.780;9.212;2022-08-19T08:06:25;98022.81;;;24.04;nan
19259;BME280;9763;48.780;9.212;2022-08-19T08:10:07;98028.25;;;23.90;nan
19259;BME280;9763;48.780;9.212;2022-08-19T08:13:42;98040.25;;;23.79;nan
19259;BME280;9763;48.780;9.212;2022-08-19T08:17:09;98034.44;;;23.69;nan
19259;BME280;9763;48.780;9.212;2022-08-19T08:20:33;98041.59;;;23.68;nan
19259;BME280;9763;48.780;9.212;2022-08-19T08:23:57;98041.59;;;23.68;nan
19259;BME280;9763;48.780;9.212;2022-08-19T08:27:25;98046.19;;;23.75;nan
19259;BME280;9763;48.780;9.212;2022-08-19T08:30:53;98046.03;;;23.83;nan
19259;BME280;9763;48.780;9.212;2022-08-19T08:34:20;98047.13;;;23.88;nan
19259;BME280;9763;48.780;9.212;2022-08-19T08:37:44;98043.31;;;23.76;nan
19259;BME280;9763;48.780;9.212;2022-08-19T08:41:23;98045.22;;;23.61;nan
19259;BME280;9763;48.780;9.212;2022-08-19T08:44:58;98041.09;;;23.58;nan
19259;BME280;9763;48.780;9.212;2022-08-19T08:48:32;98030.91;;;23.62;nan
19259;BME280;9763;48.780;9.212;2022-08-19T08:52:06;98031.84;;;23.76;nan
19259;BME280;9763;48.780;9.212;2022-08-19T08:55:31;98036.50;;;23.95;nan
19259;BME280;9763;48.780;9.212;2022-08-19T08:59:02;98029.06;;;24.18;nan
19259;BME280;9763;48.780;9.212;2022-08-19T09:02:29;98035.41;;;24.38;nan
19259;BME280;9763;48.780;9.212;2022-08-19T09:06:00;98041.03;;;24.57;nan
19259;BME280;9763;48.780;9.212;2022-08-19T09:09:33;98036.78;;;24.69;nan
19259;BME280;9763;48.780;9.212;2022-08-19T09:13:07;98034.16;;;24.82;nan
19259;BME280;9763;48.780;9.212;2022-08-19T09:16:36;98039.13;;;24.92;nan
19259;BME280;9763;48.780;9.212;2022-08-19T09:20:18;98047.59;;;24.95;nan
19259;BME280;9763;48.780;9.212;2022-08-19T09:23:41;98049.19;;;24.90;nan
19259;BME280;9763;48.780;9.212;2022-08-19T09:27:07;98052.28;;;24.87;nan
19259;BME280;9763;48.780;9.212;2022-08-19T09:30:41;98032.06;;;24.77;nan
19259;BME280;9763;48.780;9.212;2022-08-19T09:34:05;98047.47;;;24.75;nan
19259;BME280;9763;48.780;9.212;2022-08-19T09:37:42;98053.03;;;24.74;nan
19259;BME280;9763;48.780;9.212;2022-08-19T09:41:09;98050.38;;;24.74;nan
19259;BME280;9763;48.780;9.212;2022-08-19T09:44:34;98048.91;;;24.71;nan
19259;BME280;9763;48.780;9.212;2022-08-19T09:47:58;98050.09;;;24.62;nan
19259;BME280;9763;48.780;9.212;2022-08-19T09:51:26;98051.69;;;24.50;nan
19259;BME280;9763;48.780;9.212;2022-08-19T09:54:52;98053.28;;;24.45;nan
19259;BME280;9763;48.780;9.212;2022-08-19T09:58:16;98063.94;;;24.45;nan
19259;BME280;9763;48.780;9.212;2022-08-19T10:01:47;98058.25;;;24.54;nan
19259;BME280;9763;48.780;9.212;2022-08-19T10:05:11;98057.88;;;24.64;nan
19259;BME280;9763;48.780;9.212;2022-08-19T10:08:52;98045.81;;;24.68;nan
19259;BME280;9763;48.780;9.212;2022-08-19T10:12:16;98051.56;;;24.71;nan
19259;BME280;9763;48.780;9.212;2022-08-19T10:15:42;98051.97;;;24.68;nan
19259;BME280;9763;48.780;9.212;2022-08-19T10:19:11;98055.22;;;24.64;nan
19259;BME280;9763;48.780;9.212;2022-08-19T10:22:35;98050.09;;;24.62;nan
19259;BME280;9763;48.780;9.212;2022-08-19T10:26:00;98051.34;;;24.66;nan
19259;BME280;9763;48.780;9.212;2022-08-19T10:29:23;98053.41;;;24.71;nan
19259;BME280;9763;48.780;9.212;2022-08-19T10:32:54;98053.97;;;24.60;nan
19259;BME280;9763;48.780;9.212;2022-08-19T10:36:22;98042.44;;;24.53;nan
19259;BME280;9763;48.780;9.212;2022-08-19T10:39:46;98042.44;;;24.53;nan
19259;BME280;9763;48.780;9.212;2022-08-19T10:43:10;98036.94;;;24.61;nan
19259;BME280;9763;48.780;9.212;2022-08-19T10:46:39;98035.78;;;24.76;nan
19259;BME280;9763;48.780;9.212;2022-08-19T10:50:10;98028.09;;;24.95;nan
19259;BME280;9763;48.780;9.212;2022-08-19T10:53:53;98024.66;;;25.21;nan
19259;BME280;9763;48.780;9.212;2022-08-19T10:57:17;98022.63;;;25.36;nan
19259;BME280;9763;48.780;9.212;2022-08-19T11:00:40;98026.75;;;25.38;nan
19259;BME280;9763;48.780;9.212;2022-08-19T11:04:05;98033.75;;;25.39;nan
19259;BME280;9763;48.780;9.212;2022-08-19T11:07:31;98024.31;;;25.43;nan
19259;BME280;9763;48.780;9.212;2022-08-19T11:11:00;98031.28;;;25.44;nan
19259;BME280;9763;48.780;9.212;2022-08-19T11:14:25;98024.94;;;25.45;nan
19259;BME280;9763;48.780;9.212;2022-08-19T11:17:55;98034.34;;;25.48;nan
19259;BME280;9763;48.780;9.212;2022-08-19T11:21:22;98025.94;;;25.51;nan
19259;BME280;9763;48.780;9.212;2022-08-19T11:24:45;98031.72;;;25.55;nan
19259;BME280;9763;48.780;9.212;2022-08-19T11:28:11;98025.16;;;25.57;nan
19259;BME280;9763;48.780;9.212;2022-08-19T11:31:35;98034.22;;;25.63;nan
19259;BME280;9763;48.780;9.212;2022-08-19T11:35:01;98023.94;;;25.66;nan
19259;BME280;9763;48.780;9.212;2022-08-19T11:38:24;98027.84;;;25.70;nan
19259;BME280;9763;48.780;9.212;2022-08-19T11:41:48;98028.47;;;25.79;nan
19259;BME280;9763;48.780;9.212;2022-08-19T11:45:13;98022.69;;;25.89;nan
19259;BME280;9763;48.780;9.212;2022-08-19T11:48:38;98025.56;;;26.00;nan
19259;BME280;9763;48.780;9.212;2022-08-19T11:52:02;98037.69;;;26.09;nan
19259;BME280;9763;48.780;9.212;2022-08-19T11:55:26;98028.66;;;26.17;nan
19259;BME280;9763;48.780;9.212;2022-08-19T11:58:51;98026.97;;;26.23;nan
19259;BME280;9763;48.780;9.212;2022-08-19T12:02:17;98018.56;;;26.32;nan
19259;BME280;9763;48.780;9.212;2022-08-19T12:05:42;98021.22;;;26.39;nan
19259;BME280;9763;48.780;9.212;2022-08-19T12:09:09;98025.72;;;26.45;nan
19259;BME280;9763;48.780;9.212;2022-08-19T12:12:34;98024.94;;;26.44;nan
19259;BME280;9763;48.780;9.212;2022-08-19T12:15:57;98020.59;;;26.43;nan
19259;BME280;9763;48.780;9.212;2022-08-19T12:19:23;98018.50;;;26.45;nan
19259;BME280;9763;48.780;9.212;2022-08-19T12:22:46;98019.13;;;26.47;nan
19259;BME280;9763;48.780;9.212;2022-08-19T12:26:11;98017.06;;;26.49;nan
19259;BME280;9763;48.780;9.212;2022-08-19T12:29:35;98024.69;;;26.52;nan
19259;BME280;9763;48.780;9.212;2022-08-19T12:32:59;98016.88;;;26.51;nan
19259;BME280;9763;48.780;9.212;2022-08-19T12:36:24;98019.97;;;26.48;nan
19259;BME280;9763;48.780;9.212;2022-08-19T12:39:48;98019.16;;;26.41;nan
19259;BME280;9763;48.780;9.212;2022-08-19T12:43:12;98022.47;;;26.36;nan
19259;BME280;9763;48.780;9.212;2022-08-19T12:46:36;98021.63;;;26.36;nan
19259;BME280;9763;48.780;9.212;2022-08-19T12:50:00;98013.19;;;26.39;nan
19259;BME280;9763;48.780;9.212;2022-08-19T12:53:29;98015.00;;;26.45;nan
19259;BME280;9763;48.780;9.212;2022-08-19T12:56:53;98023.25;;;26.57;nan
19259;BME280;9763;48.780;9.212;2022-08-19T13:00:19;98027.69;;;26.76;nan
19259;BME280;9763;48.780;9.212;2022-08-19T13:03:46;98021.03;;;26.92;nan
19259;BME280;9763;48.780;9.212;2022-08-19T13:07:12;98022.25;;;27.02;nan
19259;BME280;9763;48.780;9.212;2022-08-19T13:10:37;98024.94;;;27.02;nan
19259;BME280;9763;48.780;9.212;2022-08-19T13:14:03;98031.97;;;26.90;nan
19259;BME280;9763;48.780;9.212;2022-08-19T13:17:27;98039.44;;;26.75;nan
19259;BME280;9763;48.780;9.212;2022-08-19T13:20:50;98042.78;;;26.57;nan
19259;BME280;9763;48.780;9.212;2022-08-19T13:24:15;98041.19;;;26.43;nan
19259;BME280;9763;48.780;9.212;2022-08-19T13:27:40;98033.41;;;26.28;nan
19259;BME280;9763;48.780;9.212;2022-08-19T13:31:03;98039.16;;;26.12;nan
19259;BME280;9763;48.780;9.212;2022-08-19T13:34:45;98039.59;;;25.96;nan
19259;BME280;9763;48.780;9.212;2022-08-19T13:38:10;98039.78;;;25.88;nan
19259;BME280;9763;48.780;9.212;2022-08-19T13:41:34;98038.75;;;25.75;nan
19259;BME280;9763;48.780;9.212;2022-08-19T13:44:59;98034.22;;;25.63;nan
19259;BME280;9763;48.780;9.212;2022-08-19T13:48:24;98040.97;;;25.52;nan
19259;BME280;9763;48.780;9.212;2022-08-19T13:51:48;98041.13;;;25.37;nan
19259;BME280;9763;48.780;9.212;2022-08-19T13:55:13;98041.31;;;25.23;nan
19259;BME280;9763;48.780;9.212;2022-08-19T13:58:46;98051.34;;;25.07;nan
19259;BME280;9763;48.780;9.212;2022-08-19T14:02:11;98055.47;;;24.75;nan
19259;BME280;9763;48.780;9.212;2022-08-19T14:05:34;98056.97;;;24.44;nan
19259;BME280;9763;48.780;9.212;2022-08-19T14:08:58;98054.53;;;24.21;nan
19259;BME280;9763;48.780;9.212;2022-08-19T14:12:24;98052.59;;;24.08;nan
19259;BME280;9763;48.780;9.212;2022-08-19T14:15:50;98048.63;;;23.97;nan
19259;BME280;9763;48.780;9.212;2022-08-19T14:19:16;98060.03;;;23.91;nan
19259;BME280;9763;48.780;9.212;2022-08-19T14:22:42;98054.09;;;23.89;nan
19259;BME280;9763;48.780;9.212;2022-08-19T14:26:09;98049.81;;;23.95;nan
19259;BME280;9763;48.780;9.212;2022-08-19T14:29:34;98056.09;;;24.09;nan
19259;BME280;9763;48.780;9.212;2022-08-19T14:33:00;98046.72;;;24.19;nan
19259;BME280;9763;48.780;9.212;2022-08-19T14:36:25;98043.97;;;24.34;nan
19259;BME280;9763;48.780;9.212;2022-08-19T14:39:49;98039.75;;;24.53;nan
19259;BME280;9763;48.780;9.212;2022-08-19T14:43:12;98038.44;;;24.76;nan
19259;BME280;9763;48.780;9.212;2022-08-19T14:46:40;98041.03;;;24.98;nan
19259;BME280;9763;48.780;9.212;2022-08-19T14:50:11;98042.13;;;25.10;nan
19259;BME280;9763;48.780;9.212;2022-08-19T14:53:42;98044.78;;;25.17;nan
19259;BME280;9763;48.780;9.212;2022-08-19T14:57:05;98035.97;;;25.23;nan
19259;BME280;9763;48.780;9.212;2022-08-19T15:00:29;98029.38;;;25.25;nan
19259;BME280;9763;48.780;9.212;2022-08-19T15:03:53;98031.88;;;25.27;nan
19259;BME280;9763;48.780;9.212;2022-08-19T15:07:17;98027.53;;;25.26;nan
19259;BME280;9763;48.780;9.212;2022-08-19T15:10:42;98022.81;;;25.28;nan
19259;BME280;9763;48.780;9.212;2022-08-19T15:14:05;98028.81;;;25.43;nan
19259;BME280;9763;48.780;9.212;2022-08-19T15:17:29;98028.63;;;25.58;nan
19259;BME280;9763;48.780;9.212;2022-08-19T15:21:14;98039.59;;;25.82;nan
19259;BME280;9763;48.780;9.212;2022-08-19T15:24:48;98031.31;;;26.10;nan
19259;BME280;9763;48.780;9.212;2022-08-19T15:28:13;98037.69;;;26.36;nan
19259;BME280;9763;48.780;9.212;2022-08-19T15:31:38;98026.72;;;26.57;nan
19259;BME280;9763;48.780;9.212;2022-08-19T15:35:02;98031.41;;;26.75;nan
19259;BME280;9763;48.780;9.212;2022-08-19T15:38:26;98031.16;;;26.83;nan
19259;BME280;9763;48.780;9.212;2022-08-19T15:41:50;98029.75;;;26.80;nan
19259;BME280;9763;48.780;9.212;2022-08-19T15:45:17;98026.47;;;26.72;nan
19259;BME280;9763;48.780;9.212;2022-08-19T15:48:41;98023.63;;;26.67;nan
19259;BME280;9763;48.780;9.212;2022-08-19T15:52:10;98035.38;;;26.66;nan
19259;BME280;9763;48.780;9.212;2022-08-19T15:55:41;98026.09;;;26.68;nan
19259;BME280;9763;48.780;9.212;2022-08-19T15:59:04;98028.31;;;26.71;nan
19259;BME280;9763;48.780;9.212;2022-08-19T16:02:47;98030.59;;;26.74;nan
19259;BME280;9763;48.780;9.212;2022-08-19T16:06:30;98036.31;;;26.84;nan
19259;BME280;9763;48.780;9.212;2022-08-19T16:09:53;98036.69;;;27.01;nan
19259;BME280;9763;48.780;9.212;2022-08-19T16:13:17;98046.13;;;27.10;nan
19259;BME280;9763;48.780;9.212;2022-08-19T16:16:41;98039.53;;;27.13;nan
19259;BME280;9763;48.780;9.212;2022-08-19T16:20:10;98044.69;;;27.08;nan
19259;BME280;9763;48.780;9.212;2022-08-19T16:23:34;98044.72;;;27.01;nan
19259;BME280;9763;48.780;9.212;2022-08-19T16:26:58;98052.38;;;26.91;nan
19259;BME280;9763;48.780;9.212;2022-08-19T16:30:22;98058.19;;;26.75;nan
19259;BME280;9763;48.780;9.212;2022-08-19T16:33:46;98060.28;;;26.60;nan
19259;BME280;9763;48.780;9.212;2022-08-19T16:37:11;98060.75;;;26.43;nan
19259;BME280;9763;48.780;9.212;2022-08-19T16:40:35;98066.34;;;26.29;nan
19259;BME280;9763;48.780;9.212;2022-08-19T16:43:59;98062.81;;;26.15;nan
19259;BME280;9763;48.780;9.212;2022-08-19T16:47:22;98064.25;;;25.98;nan
19259;BME280;9763;48.780;9.212;2022-08-19T16:50:46;98072.06;;;25.86;nan
19259;BME280;9763;48.780;9.212;2022-08-19T16:54:12;98066.50;;;25.74;nan
19259;BME280;9763;48.780;9.212;2022-08-19T16:57:36;98064.88;;;25.67;nan
19259;BME280;9763;48.780;9.212;2022-08-19T17:01:02;98069.59;;;25.65;nan
19259;BME280;9763;48.780;9.212;2022-08-19T17:04:27;98084.00;;;25.70;nan
19259;BME280;9763;48.780;9.212;2022-08-19T17:07:50;98081.13;;;25.72;nan
19259;BME280;9763;48.780;9.212;2022-08-19T17:11:15;98081.34;;;25.70;nan
19259;BME280;9763;48.780;9.212;2022-08-19T17:14:40;98093.69;;;25.71;nan
19259;BME280;9763;48.780;9.212;2022-08-19T17:18:09;98093.25;;;25.74;nan
19259;BME280;9763;48.780;9.212;2022-08-19T17:21:36;98100.88;;;25.77;nan
19259;BME280;9763;48.780;9.212;2022-08-19T17:25:00;98102.31;;;25.80;nan
19259;BME280;9763;48.780;9.212;2022-08-19T17:28:28;98103.75;;;25.76;nan
19259;BME280;9763;48.780;9.212;2022-08-19T17:31:52;98102.50;;;25.65;nan
19259;BME280;9763;48.780;9.212;2022-08-19T17:35:15;98104.31;;;25.58;nan
19259;BME280;9763;48.780;9.212;2022-08-19T17:38:45;98107.59;;;25.54;nan
19259;BME280;9763;48.780;9.212;2022-08-19T17:42:09;98113.31;;;25.51;nan
19259;BME280;9763;48.780;9.212;2022-08-19T17:45:34;98104.47;;;25.50;nan
19259;BME280;9763;48.780;9.212;2022-08-19T17:48:58;98099.97;;;25.51;nan
19259;BME280;9763;48.780;9.212;2022-08-19T17:52:22;98101.19;;;25.48;nan
19259;BME280;9763;48.780;9.212;2022-08-19T17:55:46;98102.44;;;25.45;nan
19259;BME280;9763;48.780;9.212;2022-08-19T17:59:11;98107.16;;;25.43;nan
19259;BME280;9763;48.780;9.212;2022-08-19T18:02:45;98109.41;;;25.40;nan
19259;BME280;9763;48.780;9.212;2022-08-19T18:06:14;98101.19;;;25.35;nan
19259;BME280;9763;48.780;9.212;2022-08-19T18:09:39;98108.97;;;25.30;nan
19259;BME280;9763;48.780;9.212;2022-08-19T18:13:10;98119.84;;;25.22;nan
19259;BME280;9763;48.780;9.212;2022-08-19T18:16:39;98121.81;;;25.13;nan
19259;BME280;9763;48.780;9.212;2022-08-19T18:20:07;98130.47;;;25.08;nan
19259;BME280;9763;48.780;9.212;2022-08-19T18:23:34;98127.75;;;25.02;nan
19259;BME280;9763;48.780;9.212;2022-08-19T18:27:07;98134.28;;;24.93;nan
19259;BME280;9763;48.780;9.212;2022-08-19T18:30:31;98130.91;;;24.84;nan
19259;BME280;9763;48.780;9.212;2022-08-19T18:33:55;98129.03;;;24.78;nan
19259;BME280;9763;48.780;9.212;2022-08-19T18:37:20;98131.47;;;24.73;nan
19259;BME280;9763;48.780;9.212;2022-08-19T18:40:44;98138.22;;;24.69;nan
19259;BME280;9763;48.780;9.212;2022-08-19T18:44:25;98141.69;;;24.63;nan
19259;BME280;9763;48.780;9.212;2022-08-19T18:48:06;98150.44;;;24.57;nan
19259;BME280;9763;48.780;9.212;2022-08-19T18:51:49;98141.19;;;24.53;nan
19259;BME280;9763;48.780;9.212;2022-08-19T18:55:14;98142.41;;;24.50;nan
19259;BME280;9763;48.780;9.212;2022-08-19T18:58:40;98142.41;;;24.50;nan
19259;BME280;9763;48.780;9.212;2022-08-19T19:02:04;98150.19;;;24.52;nan